Etusivu
METAR-TAF:

METAR-TAF

Lentoasemat :

Amman, Jordania

Leveyspiiri: 31-59N, Pituuspiiri: 035-59E, korkeus merenpinnasta: 767 m

Tämänhetkinen sää

Tämä raportti tehtiin 14 minuuttia sitten, kello 23.00 UTC
tyyntä
Lämpötila 22°C
Kosteus 31%
Ilmanpaine 1014 hPa
Näkyvyys: 5000 m
usvaa

METAR: OJAM 242300Z 00000KT 5000 HZ NSC 22/04 Q1014 NOSIG

Aika: 02:14 (23:14 UTC)

Sääennuste

Tämä raportti tehtiin 6 tuntia ja 24 minuuttia sitten, kello 16.50 UTC
Ennuste voimassa 24. päivästä klo 18 UTC - 25. päivään klo 24 UTC
Tuuli 10 kn lännestä
Näkyvyys: 5000 m
usvaa
Ajoittain
25. päivästä klo 02 UTC - 25. päivään klo 06 UTC
Näkyvyys: 3000 m
usvaa
Todennäköisyys 30%
25. päivästä klo 12 UTC - 25. päivään klo 18 UTC
Hajonneita pilviä 10000 ft:n korkeudessa
heikkoa sadetta

TAF: OJAM 241650Z 2418/2524 28010KT 5000 HZ NSC TEMPO 2502/2506 3000 HZ PROB30 2512/2518 -RA BKN100

Säähavainnot ja -ennusteet yli 4000 lentoasemalta (METAR- ja TAF-raportit).

Käytössä olevat sääasemat on merkitty karttaan keltaisilla ja punaisilla pisteillä.

Aseta hiiri pisteen päälle nähdäksesi sääaseman nimen.

Klikkaa sitten nähdäksesi säähavainnot ja -ennusteet.

Kartan vaihtaminen: klikkaa mustalla rastilla varustettuja vihreitä pisteitä, niin voit zoomata sisään; viivalla varustettua vihreää pistettä, niin voit zoomata ulos tai vihreitä nuolia, niin pääset viereisille kartoille.


METAR-TAF: